sensor_id;sensor_type;location;lat;lon;timestamp;temperature;humidity
8655;DHT22;13500;52.514;13.462;2022-10-04T00:01:05;13.40;99.90
8655;DHT22;13500;52.514;13.462;2022-10-04T00:03:39;13.40;99.90
8655;DHT22;13500;52.514;13.462;2022-10-04T00:06:14;13.40;99.90
8655;DHT22;13500;52.514;13.462;2022-10-04T00:08:46;13.40;99.90
8655;DHT22;13500;52.514;13.462;2022-10-04T00:11:21;13.40;99.90
8655;DHT22;13500;52.514;13.462;2022-10-04T00:13:53;13.40;99.90
8655;DHT22;13500;52.514;13.462;2022-10-04T00:16:27;13.40;99.90
8655;DHT22;13500;52.514;13.462;2022-10-04T00:19:24;13.40;99.90
8655;DHT22;13500;52.514;13.462;2022-10-04T00:22:17;13.40;99.90
8655;DHT22;13500;52.514;13.462;2022-10-04T00:25:16;13.40;99.90
8655;DHT22;13500;52.514;13.462;2022-10-04T00:28:14;13.40;99.90
8655;DHT22;13500;52.514;13.462;2022-10-04T00:30:43;13.30;99.90
8655;DHT22;13500;52.514;13.462;2022-10-04T00:33:35;13.40;99.90
8655;DHT22;13500;52.514;13.462;2022-10-04T00:36:36;13.30;99.90
8655;DHT22;13500;52.514;13.462;2022-10-04T00:39:17;13.30;99.90
8655;DHT22;13500;52.514;13.462;2022-10-04T00:44:51;13.20;99.90
8655;DHT22;13500;52.514;13.462;2022-10-04T00:47:25;13.20;99.90
8655;DHT22;13500;52.514;13.462;2022-10-04T00:50:06;13.30;99.90
8655;DHT22;13500;52.514;13.462;2022-10-04T00:52:41;13.20;99.90
8655;DHT22;13500;52.514;13.462;2022-10-04T00:55:21;13.20;99.90
8655;DHT22;13500;52.514;13.462;2022-10-04T00:57:55;13.10;99.90
8655;DHT22;13500;52.514;13.462;2022-10-04T01:00:28;13.20;99.90
8655;DHT22;13500;52.514;13.462;2022-10-04T01:03:00;13.20;99.90
8655;DHT22;13500;52.514;13.462;2022-10-04T01:05:34;13.20;99.90
8655;DHT22;13500;52.514;13.462;2022-10-04T01:08:06;13.20;99.90
8655;DHT22;13500;52.514;13.462;2022-10-04T01:10:39;13.20;99.90
8655;DHT22;13500;52.514;13.462;2022-10-04T01:13:11;13.20;99.90
8655;DHT22;13500;52.514;13.462;2022-10-04T01:15:47;13.20;99.90
8655;DHT22;13500;52.514;13.462;2022-10-04T01:18:28;13.20;99.90
8655;DHT22;13500;52.514;13.462;2022-10-04T01:20:59;13.20;99.90
8655;DHT22;13500;52.514;13.462;2022-10-04T01:23:37;13.10;99.90
8655;DHT22;13500;52.514;13.462;2022-10-04T01:26:38;13.10;99.90
8655;DHT22;13500;52.514;13.462;2022-10-04T01:29:09;13.10;99.90
8655;DHT22;13500;52.514;13.462;2022-10-04T01:31:39;13.10;99.90
8655;DHT22;13500;52.514;13.462;2022-10-04T01:34:11;13.00;99.90
8655;DHT22;13500;52.514;13.462;2022-10-04T01:36:40;13.00;99.90
8655;DHT22;13500;52.514;13.462;2022-10-04T01:39:08;13.00;99.90
8655;DHT22;13500;52.514;13.462;2022-10-04T01:41:44;12.90;99.90
8655;DHT22;13500;52.514;13.462;2022-10-04T01:44:21;12.90;99.90
8655;DHT22;13500;52.514;13.462;2022-10-04T01:46:54;12.90;99.90
8655;DHT22;13500;52.514;13.462;2022-10-04T01:49:33;12.90;99.90
8655;DHT22;13500;52.514;13.462;2022-10-04T01:52:06;12.90;99.90
8655;DHT22;13500;52.514;13.462;2022-10-04T01:54:38;13.00;99.90
8655;DHT22;13500;52.514;13.462;2022-10-04T01:57:14;13.00;99.90
8655;DHT22;13500;52.514;13.462;2022-10-04T01:59:48;13.00;99.90
8655;DHT22;13500;52.514;13.462;2022-10-04T02:02:21;13.00;99.90
8655;DHT22;13500;52.514;13.462;2022-10-04T02:04:53;13.00;99.90
8655;DHT22;13500;52.514;13.462;2022-10-04T02:07:23;13.00;99.90
8655;DHT22;13500;52.514;13.462;2022-10-04T02:09:55;12.90;99.90
8655;DHT22;13500;52.514;13.462;2022-10-04T02:12:27;12.80;99.90
8655;DHT22;13500;52.514;13.462;2022-10-04T02:14:59;12.80;99.90
8655;DHT22;13500;52.514;13.462;2022-10-04T02:17:29;12.80;99.90
8655;DHT22;13500;52.514;13.462;2022-10-04T02:19:59;12.80;99.90
8655;DHT22;13500;52.514;13.462;2022-10-04T02:22:28;12.80;99.90
8655;DHT22;13500;52.514;13.462;2022-10-04T02:24:57;12.80;99.90
8655;DHT22;13500;52.514;13.462;2022-10-04T02:27:27;12.80;99.90
8655;DHT22;13500;52.514;13.462;2022-10-04T02:30:00;12.70;99.90
8655;DHT22;13500;52.514;13.462;2022-10-04T02:32:30;12.70;99.90
8655;DHT22;13500;52.514;13.462;2022-10-04T02:35:16;12.60;99.90
8655;DHT22;13500;52.514;13.462;2022-10-04T02:37:46;12.60;99.90
8655;DHT22;13500;52.514;13.462;2022-10-04T02:40:18;12.60;99.90
8655;DHT22;13500;52.514;13.462;2022-10-04T02:42:56;12.50;99.90
8655;DHT22;13500;52.514;13.462;2022-10-04T02:45:31;12.50;99.90
8655;DHT22;13500;52.514;13.462;2022-10-04T02:48:21;12.50;99.90
8655;DHT22;13500;52.514;13.462;2022-10-04T02:50:55;12.40;99.90
8655;DHT22;13500;52.514;13.462;2022-10-04T02:53:28;12.40;99.90
8655;DHT22;13500;52.514;13.462;2022-10-04T02:55:58;12.40;99.90
8655;DHT22;13500;52.514;13.462;2022-10-04T02:58:29;12.40;99.90
8655;DHT22;13500;52.514;13.462;2022-10-04T03:00:59;12.40;99.90
8655;DHT22;13500;52.514;13.462;2022-10-04T03:03:29;12.40;99.90
8655;DHT22;13500;52.514;13.462;2022-10-04T03:06:00;12.50;99.90
8655;DHT22;13500;52.514;13.462;2022-10-04T03:08:32;12.40;99.90
8655;DHT22;13500;52.514;13.462;2022-10-04T03:11:02;12.40;99.90
8655;DHT22;13500;52.514;13.462;2022-10-04T03:13:32;12.30;99.90
8655;DHT22;13500;52.514;13.462;2022-10-04T03:16:03;12.30;99.90
8655;DHT22;13500;52.514;13.462;2022-10-04T03:18:31;12.30;99.90
8655;DHT22;13500;52.514;13.462;2022-10-04T03:21:02;12.20;99.90
8655;DHT22;13500;52.514;13.462;2022-10-04T03:23:31;12.20;99.90
8655;DHT22;13500;52.514;13.462;2022-10-04T03:26:03;12.20;99.90
8655;DHT22;13500;52.514;13.462;2022-10-04T03:28:36;12.20;99.90
8655;DHT22;13500;52.514;13.462;2022-10-04T03:31:05;12.20;99.90
8655;DHT22;13500;52.514;13.462;2022-10-04T03:33:33;12.20;99.90
8655;DHT22;13500;52.514;13.462;2022-10-04T03:36:01;12.20;99.90
8655;DHT22;13500;52.514;13.462;2022-10-04T03:38:33;12.10;99.90
8655;DHT22;13500;52.514;13.462;2022-10-04T03:41:02;12.10;99.90
8655;DHT22;13500;52.514;13.462;2022-10-04T03:43:32;12.10;99.90
8655;DHT22;13500;52.514;13.462;2022-10-04T03:46:05;12.10;99.90
8655;DHT22;13500;52.514;13.462;2022-10-04T03:48:36;12.10;99.90
8655;DHT22;13500;52.514;13.462;2022-10-04T03:51:09;12.10;99.90
8655;DHT22;13500;52.514;13.462;2022-10-04T03:53:41;12.00;99.90
8655;DHT22;13500;52.514;13.462;2022-10-04T03:56:12;12.10;99.90
8655;DHT22;13500;52.514;13.462;2022-10-04T03:58:42;12.00;99.90
8655;DHT22;13500;52.514;13.462;2022-10-04T04:01:18;12.00;99.90
8655;DHT22;13500;52.514;13.462;2022-10-04T04:03:55;12.00;99.90
8655;DHT22;13500;52.514;13.462;2022-10-04T04:06:24;12.00;99.90
8655;DHT22;13500;52.514;13.462;2022-10-04T04:08:55;12.00;99.90
8655;DHT22;13500;52.514;13.462;2022-10-04T04:11:26;12.00;99.90
8655;DHT22;13500;52.514;13.462;2022-10-04T04:14:01;12.00;99.90
8655;DHT22;13500;52.514;13.462;2022-10-04T04:16:32;12.00;99.90
8655;DHT22;13500;52.514;13.462;2022-10-04T04:19:03;12.00;99.90
8655;DHT22;13500;52.514;13.462;2022-10-04T04:21:32;12.00;99.90
8655;DHT22;13500;52.514;13.462;2022-10-04T04:24:02;12.00;99.90
8655;DHT22;13500;52.514;13.462;2022-10-04T04:26:35;12.00;99.90
8655;DHT22;13500;52.514;13.462;2022-10-04T04:29:07;12.00;99.90
8655;DHT22;13500;52.514;13.462;2022-10-04T04:31:42;11.90;99.90
8655;DHT22;13500;52.514;13.462;2022-10-04T04:34:18;11.90;99.90
8655;DHT22;13500;52.514;13.462;2022-10-04T04:36:47;11.80;99.90
8655;DHT22;13500;52.514;13.462;2022-10-04T04:39:17;11.80;99.90
8655;DHT22;13500;52.514;13.462;2022-10-04T04:42:05;11.80;99.90
8655;DHT22;13500;52.514;13.462;2022-10-04T04:44:38;11.80;99.90
8655;DHT22;13500;52.514;13.462;2022-10-04T04:47:26;11.70;99.90
8655;DHT22;13500;52.514;13.462;2022-10-04T04:49:57;11.70;99.90
8655;DHT22;13500;52.514;13.462;2022-10-04T04:52:29;11.60;99.90
8655;DHT22;13500;52.514;13.462;2022-10-04T04:54:58;11.60;99.90
8655;DHT22;13500;52.514;13.462;2022-10-04T04:57:26;11.60;99.90
8655;DHT22;13500;52.514;13.462;2022-10-04T04:59:57;11.60;99.90
8655;DHT22;13500;52.514;13.462;2022-10-04T05:02:29;11.60;99.90
8655;DHT22;13500;52.514;13.462;2022-10-04T05:05:15;11.60;99.90
8655;DHT22;13500;52.514;13.462;2022-10-04T05:07:43;11.60;99.90
8655;DHT22;13500;52.514;13.462;2022-10-04T05:10:20;11.50;99.90
8655;DHT22;13500;52.514;13.462;2022-10-04T05:12:48;11.50;99.90
8655;DHT22;13500;52.514;13.462;2022-10-04T05:15:17;11.50;99.90
8655;DHT22;13500;52.514;13.462;2022-10-04T05:17:47;11.50;99.90
8655;DHT22;13500;52.514;13.462;2022-10-04T05:20:15;11.50;99.90
8655;DHT22;13500;52.514;13.462;2022-10-04T05:22:46;11.60;99.90
8655;DHT22;13500;52.514;13.462;2022-10-04T05:25:26;11.50;99.90
8655;DHT22;13500;52.514;13.462;2022-10-04T05:27:55;11.50;99.90
8655;DHT22;13500;52.514;13.462;2022-10-04T05:30:45;11.50;99.90
8655;DHT22;13500;52.514;13.462;2022-10-04T05:33:23;11.60;99.90
8655;DHT22;13500;52.514;13.462;2022-10-04T05:36:18;11.60;99.90
8655;DHT22;13500;52.514;13.462;2022-10-04T05:38:55;11.70;99.90
8655;DHT22;13500;52.514;13.462;2022-10-04T05:41:33;11.70;99.90
8655;DHT22;13500;52.514;13.462;2022-10-04T05:44:19;11.80;99.90
8655;DHT22;13500;52.514;13.462;2022-10-04T05:46:50;11.90;99.90
8655;DHT22;13500;52.514;13.462;2022-10-04T05:49:22;11.90;99.90
8655;DHT22;13500;52.514;13.462;2022-10-04T05:51:53;12.10;99.90
8655;DHT22;13500;52.514;13.462;2022-10-04T05:54:24;12.10;99.90
8655;DHT22;13500;52.514;13.462;2022-10-04T05:57:26;12.20;99.90
8655;DHT22;13500;52.514;13.462;2022-10-04T06:00:12;12.40;99.90
8655;DHT22;13500;52.514;13.462;2022-10-04T06:03:01;12.50;99.90
8655;DHT22;13500;52.514;13.462;2022-10-04T06:05:46;12.60;99.90
8655;DHT22;13500;52.514;13.462;2022-10-04T06:08:22;12.70;99.90
8655;DHT22;13500;52.514;13.462;2022-10-04T06:11:04;12.80;99.90
8655;DHT22;13500;52.514;13.462;2022-10-04T06:13:48;12.90;99.90
8655;DHT22;13500;52.514;13.462;2022-10-04T06:16:29;13.00;99.90
8655;DHT22;13500;52.514;13.462;2022-10-04T06:19:30;13.10;99.90
8655;DHT22;13500;52.514;13.462;2022-10-04T06:22:08;13.30;99.90
8655;DHT22;13500;52.514;13.462;2022-10-04T06:24:41;13.40;99.90
8655;DHT22;13500;52.514;13.462;2022-10-04T06:27:14;13.50;99.90
8655;DHT22;13500;52.514;13.462;2022-10-04T06:29:49;13.70;99.90
8655;DHT22;13500;52.514;13.462;2022-10-04T06:32:53;13.90;99.90
8655;DHT22;13500;52.514;13.462;2022-10-04T06:35:52;14.30;99.90
8655;DHT22;13500;52.514;13.462;2022-10-04T06:38:44;14.70;99.90
8655;DHT22;13500;52.514;13.462;2022-10-04T06:41:49;15.20;99.90
8655;DHT22;13500;52.514;13.462;2022-10-04T06:44:36;14.80;99.90
8655;DHT22;13500;52.514;13.462;2022-10-04T06:47:27;15.30;99.90
8655;DHT22;13500;52.514;13.462;2022-10-04T06:50:10;15.50;99.90
8655;DHT22;13500;52.514;13.462;2022-10-04T06:53:04;15.60;99.90
8655;DHT22;13500;52.514;13.462;2022-10-04T06:55:56;15.00;99.90
8655;DHT22;13500;52.514;13.462;2022-10-04T06:58:39;14.70;99.90
8655;DHT22;13500;52.514;13.462;2022-10-04T07:01:20;14.30;99.90
8655;DHT22;13500;52.514;13.462;2022-10-04T07:03:54;14.20;99.90
8655;DHT22;13500;52.514;13.462;2022-10-04T07:06:28;13.90;99.90
8655;DHT22;13500;52.514;13.462;2022-10-04T07:08:58;13.80;99.90
8655;DHT22;13500;52.514;13.462;2022-10-04T07:11:37;13.80;99.90
8655;DHT22;13500;52.514;13.462;2022-10-04T07:14:13;13.60;99.90
8655;DHT22;13500;52.514;13.462;2022-10-04T07:16:46;13.40;99.90
8655;DHT22;13500;52.514;13.462;2022-10-04T07:19:32;13.50;99.90
8655;DHT22;13500;52.514;13.462;2022-10-04T07:22:13;13.50;99.90
8655;DHT22;13500;52.514;13.462;2022-10-04T07:24:52;13.60;99.90
8655;DHT22;13500;52.514;13.462;2022-10-04T07:27:28;13.60;99.90
8655;DHT22;13500;52.514;13.462;2022-10-04T07:29:59;13.70;99.90
8655;DHT22;13500;52.514;13.462;2022-10-04T07:32:30;13.70;99.90
8655;DHT22;13500;52.514;13.462;2022-10-04T07:35:01;13.80;99.90
8655;DHT22;13500;52.514;13.462;2022-10-04T07:37:35;13.80;99.90
8655;DHT22;13500;52.514;13.462;2022-10-04T07:40:08;13.70;99.90
8655;DHT22;13500;52.514;13.462;2022-10-04T07:42:50;13.80;99.90
8655;DHT22;13500;52.514;13.462;2022-10-04T07:45:21;13.80;99.90
8655;DHT22;13500;52.514;13.462;2022-10-04T07:48:03;13.80;99.90
8655;DHT22;13500;52.514;13.462;2022-10-04T07:50:36;13.70;99.90
8655;DHT22;13500;52.514;13.462;2022-10-04T07:53:08;13.60;99.90
8655;DHT22;13500;52.514;13.462;2022-10-04T07:55:55;13.60;99.90
8655;DHT22;13500;52.514;13.462;2022-10-04T07:58:44;13.80;99.90
8655;DHT22;13500;52.514;13.462;2022-10-04T08:01:21;13.80;99.90
8655;DHT22;13500;52.514;13.462;2022-10-04T08:04:13;13.90;99.90
8655;DHT22;13500;52.514;13.462;2022-10-04T08:06:54;13.80;99.90
8655;DHT22;13500;52.514;13.462;2022-10-04T08:09:40;13.90;99.90
8655;DHT22;13500;52.514;13.462;2022-10-04T08:12:20;14.00;99.90
8655;DHT22;13500;52.514;13.462;2022-10-04T08:14:55;14.00;99.90
8655;DHT22;13500;52.514;13.462;2022-10-04T08:17:44;14.10;99.90
8655;DHT22;13500;52.514;13.462;2022-10-04T08:20:30;14.20;99.90
8655;DHT22;13500;52.514;13.462;2022-10-04T08:23:20;14.20;99.90
8655;DHT22;13500;52.514;13.462;2022-10-04T08:25:59;14.00;99.90
8655;DHT22;13500;52.514;13.462;2022-10-04T08:28:36;13.90;99.90
8655;DHT22;13500;52.514;13.462;2022-10-04T08:31:33;14.10;99.90
8655;DHT22;13500;52.514;13.462;2022-10-04T08:34:17;14.30;99.90
8655;DHT22;13500;52.514;13.462;2022-10-04T08:36:56;14.80;99.90
8655;DHT22;13500;52.514;13.462;2022-10-04T08:39:37;15.40;99.90
8655;DHT22;13500;52.514;13.462;2022-10-04T08:42:46;15.30;99.90
8655;DHT22;13500;52.514;13.462;2022-10-04T08:54:26;14.40;99.90
8655;DHT22;13500;52.514;13.462;2022-10-04T08:57:13;14.40;99.90
8655;DHT22;13500;52.514;13.462;2022-10-04T09:00:03;14.40;99.90
8655;DHT22;13500;52.514;13.462;2022-10-04T09:05:58;15.00;99.90
8655;DHT22;13500;52.514;13.462;2022-10-04T09:08:57;15.90;99.90
8655;DHT22;13500;52.514;13.462;2022-10-04T09:11:44;17.10;99.90
8655;DHT22;13500;52.514;13.462;2022-10-04T09:14:36;16.90;99.90
8655;DHT22;13500;52.514;13.462;2022-10-04T09:17:18;16.80;99.90
8655;DHT22;13500;52.514;13.462;2022-10-04T09:19:54;17.50;99.90
8655;DHT22;13500;52.514;13.462;2022-10-04T09:22:47;17.80;99.90
8655;DHT22;13500;52.514;13.462;2022-10-04T09:25:33;19.60;99.90
8655;DHT22;13500;52.514;13.462;2022-10-04T09:28:23;20.70;99.90
8655;DHT22;13500;52.514;13.462;2022-10-04T09:31:07;22.90;99.90
8655;DHT22;13500;52.514;13.462;2022-10-04T09:34:04;23.90;99.90
8655;DHT22;13500;52.514;13.462;2022-10-04T09:36:55;23.20;99.90
8655;DHT22;13500;52.514;13.462;2022-10-04T09:42:37;21.80;99.90
8655;DHT22;13500;52.514;13.462;2022-10-04T09:45:50;20.80;99.90
8655;DHT22;13500;52.514;13.462;2022-10-04T09:48:29;20.10;99.90
8655;DHT22;13500;52.514;13.462;2022-10-04T09:51:23;20.20;99.90
8655;DHT22;13500;52.514;13.462;2022-10-04T09:57:20;19.50;99.90
8655;DHT22;13500;52.514;13.462;2022-10-04T10:00:12;19.70;99.90
8655;DHT22;13500;52.514;13.462;2022-10-04T10:03:19;20.60;99.90
8655;DHT22;13500;52.514;13.462;2022-10-04T10:08:47;24.40;99.90
8655;DHT22;13500;52.514;13.462;2022-10-04T10:11:24;24.70;99.90
8655;DHT22;13500;52.514;13.462;2022-10-04T10:17:13;24.20;99.90
8655;DHT22;13500;52.514;13.462;2022-10-04T10:20:11;25.40;99.90
8655;DHT22;13500;52.514;13.462;2022-10-04T10:23:05;24.10;99.90
8655;DHT22;13500;52.514;13.462;2022-10-04T10:25:51;23.60;99.90
8655;DHT22;13500;52.514;13.462;2022-10-04T10:28:43;22.50;99.90
8655;DHT22;13500;52.514;13.462;2022-10-04T10:31:34;21.10;99.90
8655;DHT22;13500;52.514;13.462;2022-10-04T10:34:35;20.20;99.90
8655;DHT22;13500;52.514;13.462;2022-10-04T10:37:09;19.50;99.90
8655;DHT22;13500;52.514;13.462;2022-10-04T10:45:54;20.50;99.90
8655;DHT22;13500;52.514;13.462;2022-10-04T10:48:40;20.10;99.90
8655;DHT22;13500;52.514;13.462;2022-10-04T10:51:16;19.00;99.90
8655;DHT22;13500;52.514;13.462;2022-10-04T10:57:04;19.80;99.90
8655;DHT22;13500;52.514;13.462;2022-10-04T10:59:58;20.80;99.90
8655;DHT22;13500;52.514;13.462;2022-10-04T11:03:13;21.10;99.90
8655;DHT22;13500;52.514;13.462;2022-10-04T11:09:21;19.60;99.90
8655;DHT22;13500;52.514;13.462;2022-10-04T11:12:24;19.20;99.90
8655;DHT22;13500;52.514;13.462;2022-10-04T11:15:32;18.50;99.90
8655;DHT22;13500;52.514;13.462;2022-10-04T11:18:17;18.40;99.90
8655;DHT22;13500;52.514;13.462;2022-10-04T11:21:31;18.40;99.90
8655;DHT22;13500;52.514;13.462;2022-10-04T11:24:28;19.70;99.90
8655;DHT22;13500;52.514;13.462;2022-10-04T11:27:13;20.50;99.90
8655;DHT22;13500;52.514;13.462;2022-10-04T11:29:56;20.30;99.90
8655;DHT22;13500;52.514;13.462;2022-10-04T11:35:42;19.00;99.90
8655;DHT22;13500;52.514;13.462;2022-10-04T11:41:16;19.10;99.90
8655;DHT22;13500;52.514;13.462;2022-10-04T11:44:10;19.30;99.90
8655;DHT22;13500;52.514;13.462;2022-10-04T11:46:47;19.30;99.90
8655;DHT22;13500;52.514;13.462;2022-10-04T11:49:36;18.90;99.90
8655;DHT22;13500;52.514;13.462;2022-10-04T11:52:50;18.60;99.90
8655;DHT22;13500;52.514;13.462;2022-10-04T11:55:48;18.70;99.90
8655;DHT22;13500;52.514;13.462;2022-10-04T11:58:30;18.80;99.90
8655;DHT22;13500;52.514;13.462;2022-10-04T12:01:35;18.60;99.90
8655;DHT22;13500;52.514;13.462;2022-10-04T12:07:22;18.10;99.90
8655;DHT22;13500;52.514;13.462;2022-10-04T12:10:01;18.00;99.90
8655;DHT22;13500;52.514;13.462;2022-10-04T12:12:48;18.00;99.90
8655;DHT22;13500;52.514;13.462;2022-10-04T12:15:34;17.80;99.90
8655;DHT22;13500;52.514;13.462;2022-10-04T12:21:42;18.10;99.90
8655;DHT22;13500;52.514;13.462;2022-10-04T12:24:47;18.10;99.90
8655;DHT22;13500;52.514;13.462;2022-10-04T12:27:46;18.10;99.90
8655;DHT22;13500;52.514;13.462;2022-10-04T12:30:22;18.40;99.90
8655;DHT22;13500;52.514;13.462;2022-10-04T12:32:59;19.10;99.90
8655;DHT22;13500;52.514;13.462;2022-10-04T12:35:46;19.40;99.90
8655;DHT22;13500;52.514;13.462;2022-10-04T12:38:41;19.50;99.90
8655;DHT22;13500;52.514;13.462;2022-10-04T12:41:23;19.60;99.90
8655;DHT22;13500;52.514;13.462;2022-10-04T12:44:05;19.20;99.90
8655;DHT22;13500;52.514;13.462;2022-10-04T12:46:45;18.70;99.90
8655;DHT22;13500;52.514;13.462;2022-10-04T12:49:22;18.70;99.90
8655;DHT22;13500;52.514;13.462;2022-10-04T12:51:57;18.40;99.90
8655;DHT22;13500;52.514;13.462;2022-10-04T12:54:35;18.40;99.90
8655;DHT22;13500;52.514;13.462;2022-10-04T12:57:15;18.70;99.90
8655;DHT22;13500;52.514;13.462;2022-10-04T12:59:53;18.90;99.90
8655;DHT22;13500;52.514;13.462;2022-10-04T13:02:34;18.90;99.90
8655;DHT22;13500;52.514;13.462;2022-10-04T13:05:12;18.50;99.90
8655;DHT22;13500;52.514;13.462;2022-10-04T13:08:06;18.90;99.90
8655;DHT22;13500;52.514;13.462;2022-10-04T13:13:49;19.20;99.90
8655;DHT22;13500;52.514;13.462;2022-10-04T13:16:31;19.00;99.90
8655;DHT22;13500;52.514;13.462;2022-10-04T13:19:26;18.60;99.90
8655;DHT22;13500;52.514;13.462;2022-10-04T13:22:28;18.50;99.90
8655;DHT22;13500;52.514;13.462;2022-10-04T13:25:42;18.40;99.90
8655;DHT22;13500;52.514;13.462;2022-10-04T13:28:22;18.30;99.90
8655;DHT22;13500;52.514;13.462;2022-10-04T13:30:58;18.40;99.90
8655;DHT22;13500;52.514;13.462;2022-10-04T13:33:38;18.30;99.90
8655;DHT22;13500;52.514;13.462;2022-10-04T13:36:16;18.20;99.90
8655;DHT22;13500;52.514;13.462;2022-10-04T13:41:54;18.30;99.90
8655;DHT22;13500;52.514;13.462;2022-10-04T13:44:35;18.50;99.90
8655;DHT22;13500;52.514;13.462;2022-10-04T13:47:27;19.00;99.90
8655;DHT22;13500;52.514;13.462;2022-10-04T13:50:20;19.40;99.90
8655;DHT22;13500;52.514;13.462;2022-10-04T13:53:01;19.70;99.90
8655;DHT22;13500;52.514;13.462;2022-10-04T13:55:58;19.80;99.90
8655;DHT22;13500;52.514;13.462;2022-10-04T13:58:47;19.50;99.90
8655;DHT22;13500;52.514;13.462;2022-10-04T14:02:00;19.30;99.90
8655;DHT22;13500;52.514;13.462;2022-10-04T14:04:57;19.10;99.90
8655;DHT22;13500;52.514;13.462;2022-10-04T14:07:49;19.00;99.90
8655;DHT22;13500;52.514;13.462;2022-10-04T14:10:40;19.30;99.90
8655;DHT22;13500;52.514;13.462;2022-10-04T14:13:38;19.60;99.90
8655;DHT22;13500;52.514;13.462;2022-10-04T14:16:34;19.70;99.90
8655;DHT22;13500;52.514;13.462;2022-10-04T14:22:31;19.40;99.90
8655;DHT22;13500;52.514;13.462;2022-10-04T14:25:21;19.40;99.90
8655;DHT22;13500;52.514;13.462;2022-10-04T14:28:23;19.60;99.90
8655;DHT22;13500;52.514;13.462;2022-10-04T14:31:09;19.90;99.90
8655;DHT22;13500;52.514;13.462;2022-10-04T14:34:11;20.10;99.90
8655;DHT22;13500;52.514;13.462;2022-10-04T14:37:00;19.80;99.90
8655;DHT22;13500;52.514;13.462;2022-10-04T14:39:49;19.70;99.90
8655;DHT22;13500;52.514;13.462;2022-10-04T14:42:40;19.30;99.90
8655;DHT22;13500;52.514;13.462;2022-10-04T14:45:20;18.90;99.90
8655;DHT22;13500;52.514;13.462;2022-10-04T14:51:10;18.60;99.90
8655;DHT22;13500;52.514;13.462;2022-10-04T14:53:50;18.70;99.90
8655;DHT22;13500;52.514;13.462;2022-10-04T14:56:49;18.60;99.90
8655;DHT22;13500;52.514;13.462;2022-10-04T14:59:38;18.50;99.90
8655;DHT22;13500;52.514;13.462;2022-10-04T15:02:33;18.60;99.90
8655;DHT22;13500;52.514;13.462;2022-10-04T15:05:28;19.00;99.90
8655;DHT22;13500;52.514;13.462;2022-10-04T15:08:24;19.50;99.90
8655;DHT22;13500;52.514;13.462;2022-10-04T15:10:58;19.70;99.90
8655;DHT22;13500;52.514;13.462;2022-10-04T15:13:31;19.70;99.90
8655;DHT22;13500;52.514;13.462;2022-10-04T15:16:17;19.60;99.90
8655;DHT22;13500;52.514;13.462;2022-10-04T15:18:52;19.50;99.90
8655;DHT22;13500;52.514;13.462;2022-10-04T15:21:45;19.50;99.90
8655;DHT22;13500;52.514;13.462;2022-10-04T15:24:23;19.40;99.90
8655;DHT22;13500;52.514;13.462;2022-10-04T15:27:17;19.30;99.90
8655;DHT22;13500;52.514;13.462;2022-10-04T15:29:56;18.90;99.90
8655;DHT22;13500;52.514;13.462;2022-10-04T15:32:34;18.70;99.90
8655;DHT22;13500;52.514;13.462;2022-10-04T15:35:15;18.60;99.90
8655;DHT22;13500;52.514;13.462;2022-10-04T15:37:52;18.60;99.90
8655;DHT22;13500;52.514;13.462;2022-10-04T15:40:27;18.50;99.90
8655;DHT22;13500;52.514;13.462;2022-10-04T15:43:19;18.40;99.90
8655;DHT22;13500;52.514;13.462;2022-10-04T15:49:23;18.10;99.90
8655;DHT22;13500;52.514;13.462;2022-10-04T15:52:12;18.00;99.90
8655;DHT22;13500;52.514;13.462;2022-10-04T15:57:51;18.10;99.90
8655;DHT22;13500;52.514;13.462;2022-10-04T16:00:22;18.20;99.90
8655;DHT22;13500;52.514;13.462;2022-10-04T16:03:11;18.00;99.90
8655;DHT22;13500;52.514;13.462;2022-10-04T16:05:45;18.00;99.90
8655;DHT22;13500;52.514;13.462;2022-10-04T16:08:50;17.80;99.90
8655;DHT22;13500;52.514;13.462;2022-10-04T16:11:43;17.50;99.90
8655;DHT22;13500;52.514;13.462;2022-10-04T16:14:31;17.30;99.90
8655;DHT22;13500;52.514;13.462;2022-10-04T16:20:15;17.00;99.90
8655;DHT22;13500;52.514;13.462;2022-10-04T16:25:49;16.80;99.90
8655;DHT22;13500;52.514;13.462;2022-10-04T16:28:26;16.70;99.90
8655;DHT22;13500;52.514;13.462;2022-10-04T16:31:20;16.60;99.90
8655;DHT22;13500;52.514;13.462;2022-10-04T16:34:00;16.50;99.90
8655;DHT22;13500;52.514;13.462;2022-10-04T16:36:43;16.40;99.90
8655;DHT22;13500;52.514;13.462;2022-10-04T16:39:31;16.30;99.90
8655;DHT22;13500;52.514;13.462;2022-10-04T16:42:21;16.20;99.90
8655;DHT22;13500;52.514;13.462;2022-10-04T16:44:52;16.10;99.90
8655;DHT22;13500;52.514;13.462;2022-10-04T16:47:24;16.00;99.90
8655;DHT22;13500;52.514;13.462;2022-10-04T16:49:55;16.10;99.90
8655;DHT22;13500;52.514;13.462;2022-10-04T16:52:42;16.00;99.90
8655;DHT22;13500;52.514;13.462;2022-10-04T16:55:40;15.90;99.90
8655;DHT22;13500;52.514;13.462;2022-10-04T17:02:15;15.80;99.90
8655;DHT22;13500;52.514;13.462;2022-10-04T17:07:55;15.60;99.90
8655;DHT22;13500;52.514;13.462;2022-10-04T17:10:31;15.60;99.90
8655;DHT22;13500;52.514;13.462;2022-10-04T17:13:13;15.50;99.90
8655;DHT22;13500;52.514;13.462;2022-10-04T17:15:48;15.50;99.90
8655;DHT22;13500;52.514;13.462;2022-10-04T17:18:33;15.50;99.90
8655;DHT22;13500;52.514;13.462;2022-10-04T17:21:07;15.50;99.90
8655;DHT22;13500;52.514;13.462;2022-10-04T17:23:59;15.40;99.90
8655;DHT22;13500;52.514;13.462;2022-10-04T17:26:41;15.40;99.90
8655;DHT22;13500;52.514;13.462;2022-10-04T17:29:26;15.40;99.90
8655;DHT22;13500;52.514;13.462;2022-10-04T17:32:02;15.30;99.90
8655;DHT22;13500;52.514;13.462;2022-10-04T17:34:46;15.30;99.90
8655;DHT22;13500;52.514;13.462;2022-10-04T17:37:22;15.20;99.90
8655;DHT22;13500;52.514;13.462;2022-10-04T17:39:58;15.20;99.90
8655;DHT22;13500;52.514;13.462;2022-10-04T17:42:42;15.10;99.90
8655;DHT22;13500;52.514;13.462;2022-10-04T17:48:41;15.00;99.90
8655;DHT22;13500;52.514;13.462;2022-10-04T17:51:39;15.00;99.90
8655;DHT22;13500;52.514;13.462;2022-10-04T17:54:38;14.90;99.90
8655;DHT22;13500;52.514;13.462;2022-10-04T17:57:28;14.90;99.90
8655;DHT22;13500;52.514;13.462;2022-10-04T18:00:07;14.80;99.90
8655;DHT22;13500;52.514;13.462;2022-10-04T18:02:58;14.70;99.90
8655;DHT22;13500;52.514;13.462;2022-10-04T18:05:30;14.70;99.90
8655;DHT22;13500;52.514;13.462;2022-10-04T18:08:06;14.70;99.90
8655;DHT22;13500;52.514;13.462;2022-10-04T18:10:39;14.70;99.90
8655;DHT22;13500;52.514;13.462;2022-10-04T18:13:18;14.60;99.90
8655;DHT22;13500;52.514;13.462;2022-10-04T18:15:50;14.60;99.90
8655;DHT22;13500;52.514;13.462;2022-10-04T18:18:23;14.60;99.90
8655;DHT22;13500;52.514;13.462;2022-10-04T18:23:58;14.50;99.90
8655;DHT22;13500;52.514;13.462;2022-10-04T18:26:29;14.60;99.90
8655;DHT22;13500;52.514;13.462;2022-10-04T18:28:59;14.50;99.90